createdAt,value
2023-04-30T00:01:59.281Z,3.30
2023-04-30T00:04:29.192Z,2.60
2023-04-30T00:06:56.560Z,2.80
2023-04-30T00:09:25.908Z,3.10
2023-04-30T00:11:55.044Z,3.40
2023-04-30T00:14:23.533Z,3.00
2023-04-30T00:16:53.090Z,3.00
2023-04-30T00:19:22.279Z,2.90
2023-04-30T00:21:50.611Z,3.40
2023-04-30T00:24:20.755Z,2.70
2023-04-30T00:26:47.945Z,2.90
2023-04-30T00:29:20.792Z,2.70
2023-04-30T00:31:48.430Z,2.40
2023-04-30T00:34:15.627Z,2.30
2023-04-30T00:36:42.980Z,2.30
2023-04-30T00:39:10.011Z,2.40
2023-04-30T00:41:39.724Z,2.90
2023-04-30T00:44:07.048Z,2.90
2023-04-30T00:46:35.770Z,2.50
2023-04-30T00:49:05.366Z,2.70
2023-04-30T00:51:33.955Z,2.50
2023-04-30T00:54:05.231Z,2.20
2023-04-30T00:56:32.695Z,2.30
2023-04-30T00:59:14.482Z,2.00
2023-04-30T01:01:41.498Z,2.20
2023-04-30T01:04:08.754Z,2.50
2023-04-30T01:06:36.189Z,2.40
2023-04-30T01:09:03.465Z,3.40
2023-04-30T01:11:48.146Z,2.30
2023-04-30T01:14:28.492Z,2.20
2023-04-30T01:17:06.384Z,2.00
2023-04-30T01:19:43.822Z,2.30
2023-04-30T01:22:43.097Z,2.60
2023-04-30T01:25:29.165Z,1.80
2023-04-30T01:28:24.212Z,2.10
2023-04-30T01:30:52.391Z,2.50
2023-04-30T01:33:20.073Z,2.00
2023-04-30T01:35:52.979Z,2.10
2023-04-30T01:38:58.567Z,2.70
2023-04-30T01:41:34.754Z,2.90
2023-04-30T01:44:32.739Z,2.00
2023-04-30T01:47:05.783Z,1.80
2023-04-30T01:49:58.796Z,2.40
2023-04-30T01:52:44.043Z,2.50
2023-04-30T01:55:15.815Z,2.40
2023-04-30T01:57:46.745Z,2.70
2023-04-30T02:00:14.582Z,2.00
2023-04-30T02:02:42.577Z,2.10
2023-04-30T02:05:09.979Z,2.20
2023-04-30T02:07:46.344Z,2.10
2023-04-30T02:10:14.231Z,2.50
2023-04-30T02:12:42.377Z,2.40
2023-04-30T02:15:09.781Z,3.00
2023-04-30T02:17:36.943Z,2.40
2023-04-30T02:20:05.495Z,3.50
2023-04-30T02:22:32.775Z,2.90
2023-04-30T02:25:01.466Z,2.60
2023-04-30T02:27:31.837Z,2.50
2023-04-30T02:30:00.416Z,2.50
2023-04-30T02:32:27.493Z,2.80
2023-04-30T02:34:54.968Z,2.50
2023-04-30T02:37:22.862Z,2.50
2023-04-30T02:39:50.509Z,2.70
2023-04-30T02:42:17.587Z,2.60
2023-04-30T02:44:44.638Z,2.10
2023-04-30T02:47:11.846Z,2.20
2023-04-30T02:49:39.522Z,2.10
2023-04-30T02:52:09.081Z,2.60
2023-04-30T02:54:36.200Z,2.70
2023-04-30T02:57:04.371Z,2.50
2023-04-30T02:59:31.322Z,3.00
2023-04-30T03:01:58.514Z,2.50
2023-04-30T03:04:25.874Z,2.70
2023-04-30T03:06:53.050Z,2.30
2023-04-30T03:09:20.874Z,2.80
2023-04-30T03:11:48.217Z,2.90
2023-04-30T03:14:16.364Z,2.90
2023-04-30T03:16:43.564Z,3.20
2023-04-30T03:19:12.323Z,2.90
2023-04-30T03:21:40.774Z,3.20
2023-04-30T03:24:07.837Z,2.70
2023-04-30T03:26:35.861Z,2.40
2023-04-30T03:29:03.108Z,2.40
2023-04-30T03:31:33.660Z,2.90
2023-04-30T03:34:01.347Z,2.20
2023-04-30T03:36:28.630Z,3.20
2023-04-30T03:38:56.481Z,2.80
2023-04-30T03:41:24.280Z,2.30
2023-04-30T03:43:52.058Z,2.50
2023-04-30T03:46:19.256Z,2.50
2023-04-30T03:48:46.484Z,3.30
2023-04-30T03:51:14.144Z,2.60
2023-04-30T03:53:41.147Z,2.60
2023-04-30T03:56:08.853Z,2.60
2023-04-30T03:58:37.113Z,3.00
2023-04-30T04:01:07.286Z,2.70
2023-04-30T04:03:37.314Z,2.90
2023-04-30T04:06:04.873Z,2.90
2023-04-30T04:08:32.319Z,2.40
2023-04-30T04:11:03.324Z,3.00
2023-04-30T04:13:36.430Z,3.40
2023-04-30T04:16:15.969Z,3.20
2023-04-30T04:18:49.902Z,3.10
2023-04-30T04:21:24.487Z,2.90
2023-04-30T04:23:51.814Z,2.10
2023-04-30T04:26:21.072Z,2.80
2023-04-30T04:28:49.685Z,2.90
2023-04-30T04:31:18.486Z,3.00
2023-04-30T04:33:48.471Z,2.20
2023-04-30T04:36:17.709Z,2.70
2023-04-30T04:38:45.238Z,2.10
2023-04-30T04:41:13.745Z,1.90
2023-04-30T04:43:40.803Z,1.70
2023-04-30T04:46:11.670Z,2.00
2023-04-30T04:48:40.163Z,1.90
2023-04-30T04:51:08.962Z,2.70
2023-04-30T04:53:36.268Z,2.20
2023-04-30T04:56:03.373Z,3.40
2023-04-30T04:58:31.027Z,2.40
2023-04-30T05:01:04.559Z,1.90
2023-04-30T05:03:36.660Z,2.10
2023-04-30T05:06:04.490Z,1.80
2023-04-30T05:08:31.662Z,2.20
2023-04-30T05:10:59.678Z,1.90
2023-04-30T05:13:26.824Z,2.00
2023-04-30T05:15:55.012Z,2.30
2023-04-30T05:18:22.054Z,3.80
2023-04-30T05:20:50.013Z,2.30
2023-04-30T05:23:20.141Z,2.80
2023-04-30T05:25:53.951Z,2.90
2023-04-30T05:28:21.140Z,3.10
2023-04-30T05:30:49.247Z,2.40
2023-04-30T05:33:16.311Z,2.00
2023-04-30T05:35:43.389Z,2.00
2023-04-30T05:38:11.487Z,4.20
2023-04-30T05:40:38.424Z,2.40
2023-04-30T05:43:06.211Z,2.80
2023-04-30T05:45:33.719Z,2.30
2023-04-30T05:48:03.158Z,1.90
2023-04-30T05:50:32.411Z,2.00
2023-04-30T05:53:04.027Z,2.60
2023-04-30T05:55:35.956Z,2.50
2023-04-30T05:58:04.401Z,2.50
2023-04-30T06:00:31.668Z,2.40
2023-04-30T06:02:59.530Z,2.10
2023-04-30T06:05:26.993Z,4.10
2023-04-30T06:07:54.107Z,2.70
2023-04-30T06:10:21.723Z,2.20
2023-04-30T06:12:48.709Z,2.20
2023-04-30T06:15:15.970Z,2.40
2023-04-30T06:17:43.150Z,2.30
2023-04-30T06:20:10.632Z,2.90
2023-04-30T06:22:48.093Z,2.30
2023-04-30T06:25:16.670Z,1.80
2023-04-30T06:27:43.681Z,2.30
2023-04-30T06:30:11.285Z,1.60
2023-04-30T06:32:40.915Z,1.70
2023-04-30T06:35:09.498Z,2.10
2023-04-30T06:37:42.648Z,2.10
2023-04-30T06:40:11.746Z,2.70
2023-04-30T06:42:40.769Z,2.20
2023-04-30T06:45:10.924Z,1.90
2023-04-30T06:47:38.218Z,2.10
2023-04-30T06:50:06.685Z,1.50
2023-04-30T06:52:35.262Z,1.80
2023-04-30T06:55:06.057Z,7.50
2023-04-30T06:57:37.379Z,2.90
2023-04-30T07:00:09.416Z,2.90
2023-04-30T07:02:37.028Z,2.20
2023-04-30T07:05:04.478Z,1.50
2023-04-30T07:07:32.000Z,1.60
2023-04-30T07:10:01.716Z,1.40
2023-04-30T07:12:36.419Z,1.50
2023-04-30T07:15:04.383Z,1.90
2023-04-30T07:17:31.866Z,2.30
2023-04-30T07:20:01.617Z,1.60
2023-04-30T07:22:30.160Z,1.70
2023-04-30T07:24:57.387Z,1.70
2023-04-30T07:27:24.760Z,1.80
2023-04-30T07:29:52.903Z,1.70
2023-04-30T07:32:26.731Z,1.30
2023-04-30T07:34:54.602Z,1.60
2023-04-30T07:37:28.078Z,1.60
2023-04-30T07:39:56.585Z,7.90
2023-04-30T07:42:25.918Z,1.70
2023-04-30T07:44:52.865Z,1.60
2023-04-30T07:47:19.871Z,2.10
2023-04-30T07:49:47.756Z,2.00
2023-04-30T07:52:17.149Z,1.50
2023-04-30T07:54:45.245Z,1.70
2023-04-30T07:57:12.559Z,1.70
2023-04-30T07:59:39.873Z,1.30
2023-04-30T08:02:08.475Z,1.30
2023-04-30T08:04:36.563Z,2.80
2023-04-30T08:07:04.158Z,1.30
2023-04-30T08:09:31.731Z,1.00
2023-04-30T08:12:01.582Z,1.50
2023-04-30T08:14:28.881Z,1.30
2023-04-30T08:16:56.471Z,1.60
2023-04-30T08:19:23.510Z,2.10
2023-04-30T08:21:52.723Z,1.60
2023-04-30T08:24:21.554Z,1.70
2023-04-30T08:26:53.478Z,1.10
2023-04-30T08:29:21.892Z,1.90
2023-04-30T08:31:57.199Z,0.90
2023-04-30T08:34:25.975Z,1.40
2023-04-30T08:36:53.826Z,1.70
2023-04-30T08:39:21.432Z,1.50
2023-04-30T08:41:58.443Z,1.60
2023-04-30T08:44:27.004Z,1.80
2023-04-30T08:46:55.534Z,1.60
2023-04-30T08:49:25.425Z,1.40
2023-04-30T08:51:55.829Z,1.10
2023-04-30T08:54:25.733Z,1.30
2023-04-30T08:56:55.378Z,4.10
2023-04-30T08:59:22.301Z,2.00
2023-04-30T09:01:52.064Z,2.00
2023-04-30T09:04:24.764Z,2.60
2023-04-30T09:06:59.130Z,1.70
2023-04-30T09:09:30.901Z,1.20
2023-04-30T09:12:19.359Z,1.50
2023-04-30T09:15:07.241Z,1.50
2023-04-30T09:17:37.700Z,1.40
2023-04-30T09:20:11.886Z,1.10
2023-04-30T09:22:41.012Z,1.50
2023-04-30T09:25:08.824Z,1.20
2023-04-30T09:27:36.440Z,1.10
2023-04-30T09:30:04.195Z,1.10
2023-04-30T09:32:37.161Z,0.90
2023-04-30T09:35:04.904Z,1.50
2023-04-30T09:37:41.658Z,1.00
2023-04-30T09:40:11.966Z,1.20
2023-04-30T09:42:41.789Z,1.20
2023-04-30T09:45:11.561Z,11.00
2023-04-30T09:47:40.099Z,1.50
2023-04-30T09:50:08.613Z,1.20
2023-04-30T09:52:39.282Z,1.20
2023-04-30T09:55:07.161Z,1.10
2023-04-30T09:57:36.309Z,1.30
2023-04-30T10:00:09.900Z,1.10
2023-04-30T10:02:37.645Z,1.20
2023-04-30T10:05:08.623Z,1.10
2023-04-30T10:07:40.333Z,1.20
2023-04-30T10:10:09.368Z,1.60
2023-04-30T10:12:50.918Z,1.50
2023-04-30T10:15:25.364Z,1.50
2023-04-30T10:18:04.708Z,1.50
2023-04-30T10:20:34.655Z,1.30
2023-04-30T10:23:02.294Z,1.00
2023-04-30T10:25:29.613Z,1.10
2023-04-30T10:27:58.920Z,1.00
2023-04-30T10:30:25.894Z,1.20
2023-04-30T10:33:05.389Z,1.10
2023-04-30T10:35:49.472Z,1.50
2023-04-30T10:38:24.535Z,1.10
2023-04-30T10:40:57.629Z,1.40
2023-04-30T10:43:26.078Z,1.60
2023-04-30T10:45:53.383Z,1.20
2023-04-30T10:48:26.784Z,1.40
2023-04-30T10:51:00.212Z,1.40
2023-04-30T10:53:33.490Z,1.50
2023-04-30T10:56:08.403Z,1.40
2023-04-30T10:58:37.256Z,1.30
2023-04-30T11:01:10.381Z,1.50
2023-04-30T11:04:07.839Z,1.10
2023-04-30T11:06:49.462Z,3.00
2023-04-30T11:09:16.892Z,1.50
2023-04-30T11:11:44.922Z,1.30
2023-04-30T11:14:28.978Z,1.80
2023-04-30T11:16:55.898Z,1.70
2023-04-30T11:19:24.580Z,1.30
2023-04-30T11:22:24.357Z,1.40
2023-04-30T11:25:09.609Z,1.40
2023-04-30T11:27:38.460Z,1.40
2023-04-30T11:30:18.966Z,1.90
2023-04-30T11:32:49.375Z,2.20
2023-04-30T11:35:19.464Z,1.40
2023-04-30T11:37:46.739Z,1.70
2023-04-30T11:40:14.388Z,1.80
2023-04-30T11:42:46.702Z,1.20
2023-04-30T11:45:21.832Z,1.70
2023-04-30T11:47:50.291Z,1.60
2023-04-30T11:50:27.167Z,1.40
2023-04-30T11:52:58.256Z,2.30
2023-04-30T11:55:25.955Z,1.60
2023-04-30T11:57:55.766Z,1.50
2023-04-30T12:00:27.661Z,1.40
2023-04-30T12:02:55.342Z,1.10
2023-04-30T12:05:27.367Z,1.50
2023-04-30T12:07:59.420Z,1.40
2023-04-30T12:10:27.073Z,1.00
2023-04-30T12:12:56.735Z,1.20
2023-04-30T12:15:28.462Z,1.80
2023-04-30T12:17:56.664Z,1.50
2023-04-30T12:20:25.779Z,1.50
2023-04-30T12:22:53.196Z,1.50
2023-04-30T12:25:22.098Z,0.90
2023-04-30T12:27:51.538Z,1.50
2023-04-30T12:30:23.321Z,1.70
2023-04-30T12:32:51.597Z,1.50
2023-04-30T12:35:23.114Z,1.50
2023-04-30T12:37:54.671Z,1.60
2023-04-30T12:40:27.657Z,1.40
2023-04-30T12:43:02.321Z,1.90
2023-04-30T12:45:50.961Z,1.00
2023-04-30T12:48:25.002Z,1.10
2023-04-30T12:51:15.532Z,1.80
2023-04-30T12:53:46.555Z,1.50
2023-04-30T12:56:16.773Z,1.20
2023-04-30T12:58:47.572Z,1.40
2023-04-30T13:01:23.389Z,1.40
2023-04-30T13:03:52.328Z,1.20
2023-04-30T13:06:21.972Z,1.40
2023-04-30T13:08:58.300Z,1.40
2023-04-30T13:11:27.178Z,1.40
2023-04-30T13:13:57.540Z,1.20
2023-04-30T13:16:25.444Z,1.30
2023-04-30T13:18:53.246Z,1.60
2023-04-30T13:21:20.736Z,1.50
2023-04-30T13:23:52.698Z,1.50
2023-04-30T13:26:25.954Z,1.60
2023-04-30T13:28:53.154Z,1.70
2023-04-30T13:31:26.016Z,1.20
2023-04-30T13:33:57.938Z,1.60
2023-04-30T13:36:25.116Z,1.10
2023-04-30T13:38:52.656Z,1.50
2023-04-30T13:41:22.078Z,1.50
2023-04-30T13:43:49.204Z,1.30
2023-04-30T13:46:16.745Z,1.30
2023-04-30T13:48:48.588Z,1.90
2023-04-30T13:51:18.062Z,13.90
2023-04-30T13:53:46.629Z,1.40
2023-04-30T13:56:15.035Z,1.80
2023-04-30T13:58:47.185Z,1.10
2023-04-30T14:01:15.824Z,1.20
2023-04-30T14:03:44.009Z,1.50
2023-04-30T14:06:11.317Z,1.10
2023-04-30T14:08:38.342Z,1.00
2023-04-30T14:11:06.218Z,1.30
2023-04-30T14:13:33.705Z,1.60
2023-04-30T14:16:01.724Z,1.20
2023-04-30T14:18:31.368Z,1.30
2023-04-30T14:20:59.400Z,1.30
2023-04-30T14:23:28.699Z,1.50
2023-04-30T14:25:58.059Z,1.50
2023-04-30T14:28:25.694Z,1.60
2023-04-30T14:30:52.726Z,1.90
2023-04-30T14:33:20.248Z,1.30
2023-04-30T14:35:47.968Z,1.90
2023-04-30T14:38:16.386Z,1.60
2023-04-30T14:40:46.842Z,1.40
2023-04-30T14:43:13.895Z,1.30
2023-04-30T14:45:41.068Z,1.70
2023-04-30T14:48:13.289Z,1.70
2023-04-30T14:50:46.608Z,1.90
2023-04-30T14:53:13.839Z,1.30
2023-04-30T14:55:41.975Z,1.50
2023-04-30T14:58:10.005Z,1.70
2023-04-30T15:00:38.186Z,1.80
2023-04-30T15:03:07.792Z,1.60
2023-04-30T15:05:35.948Z,1.90
2023-04-30T15:08:03.926Z,1.80
2023-04-30T15:10:31.430Z,1.90
2023-04-30T15:12:59.311Z,1.40
2023-04-30T15:15:30.445Z,1.20
2023-04-30T15:18:05.591Z,1.50
2023-04-30T15:20:33.200Z,1.60
2023-04-30T15:23:00.342Z,1.70
2023-04-30T15:25:29.920Z,1.40
2023-04-30T15:28:00.248Z,1.60
2023-04-30T15:30:28.420Z,1.60
2023-04-30T15:32:56.507Z,1.70
2023-04-30T15:35:27.655Z,1.30
2023-04-30T15:37:55.935Z,1.60
2023-04-30T15:40:25.893Z,1.40
2023-04-30T15:42:55.786Z,1.70
2023-04-30T15:45:24.968Z,1.20
2023-04-30T15:47:54.404Z,1.30
2023-04-30T15:50:27.860Z,1.70
2023-04-30T15:52:58.009Z,2.00
2023-04-30T15:55:27.250Z,1.20
2023-04-30T15:57:55.484Z,1.80
2023-04-30T16:00:26.713Z,1.40
2023-04-30T16:02:57.612Z,1.50
2023-04-30T16:05:26.444Z,1.60
2023-04-30T16:07:55.052Z,1.60
2023-04-30T16:10:23.945Z,1.50
2023-04-30T16:12:54.129Z,1.80
2023-04-30T16:15:23.774Z,2.20
2023-04-30T16:17:52.366Z,1.90
2023-04-30T16:20:20.990Z,1.50
2023-04-30T16:22:50.729Z,2.10
2023-04-30T16:25:24.820Z,2.80
2023-04-30T16:27:58.395Z,2.40
2023-04-30T16:30:26.338Z,2.20
2023-04-30T16:32:57.853Z,2.20
2023-04-30T16:35:26.217Z,2.70
2023-04-30T16:37:56.363Z,2.10
2023-04-30T16:40:28.271Z,2.20
2023-04-30T16:45:29.692Z,2.10
2023-04-30T16:47:58.469Z,2.00
2023-04-30T16:50:26.852Z,2.40
2023-04-30T16:52:56.385Z,1.70
2023-04-30T16:55:24.313Z,1.50
2023-04-30T16:57:54.466Z,1.80
2023-04-30T17:00:22.173Z,1.70
2023-04-30T17:02:49.652Z,4.80
2023-04-30T17:05:18.318Z,2.40
2023-04-30T17:07:45.550Z,2.30
2023-04-30T17:10:19.067Z,2.60
2023-04-30T17:15:20.073Z,2.50
2023-04-30T17:17:47.596Z,2.20
2023-04-30T17:20:17.009Z,2.50
2023-04-30T17:22:44.304Z,3.20
2023-04-30T17:25:11.352Z,3.10
2023-04-30T17:27:39.134Z,2.80
2023-04-30T17:30:10.068Z,2.90
2023-04-30T17:32:37.596Z,2.50
2023-04-30T17:35:07.111Z,3.60
2023-04-30T17:37:37.996Z,3.70
2023-04-30T17:40:07.297Z,3.80
2023-04-30T17:42:38.634Z,2.80
2023-04-30T17:45:11.345Z,3.50
2023-04-30T17:47:40.601Z,2.90
2023-04-30T17:50:08.824Z,2.80
2023-04-30T17:52:38.501Z,3.20
2023-04-30T17:55:07.608Z,3.40
2023-04-30T17:57:36.111Z,3.40
2023-04-30T18:00:06.661Z,3.00
2023-04-30T18:02:46.897Z,4.40
2023-04-30T18:05:22.658Z,4.20
2023-04-30T18:07:52.462Z,4.20
2023-04-30T18:10:19.528Z,4.70
2023-04-30T18:12:49.805Z,3.60
2023-04-30T18:15:21.298Z,3.40
2023-04-30T18:17:49.423Z,4.80
2023-04-30T18:20:18.580Z,4.20
2023-04-30T18:22:53.105Z,4.10
2023-04-30T18:25:23.218Z,3.80
2023-04-30T18:27:51.892Z,4.30
2023-04-30T18:30:19.724Z,4.00
2023-04-30T18:32:49.455Z,7.30
2023-04-30T18:35:17.681Z,2.60
2023-04-30T18:37:46.405Z,3.70
2023-04-30T18:40:17.370Z,4.00
2023-04-30T18:42:44.403Z,2.90
2023-04-30T18:45:11.765Z,2.90
2023-04-30T18:47:41.680Z,3.50
2023-04-30T18:50:15.439Z,2.80
2023-04-30T18:52:43.943Z,2.60
2023-04-30T18:55:14.524Z,2.60
2023-04-30T19:00:14.347Z,3.50
2023-04-30T19:02:43.895Z,3.10
2023-04-30T19:05:12.120Z,3.10
2023-04-30T19:07:49.300Z,3.00
2023-04-30T19:10:21.777Z,3.30
2023-04-30T19:12:48.967Z,3.50
2023-04-30T19:15:17.364Z,3.00
2023-04-30T19:17:44.851Z,3.20
2023-04-30T19:20:13.317Z,3.40
2023-04-30T19:22:44.816Z,3.20
2023-04-30T19:25:13.305Z,3.60
2023-04-30T19:27:42.673Z,3.30
2023-04-30T19:30:14.374Z,3.80
2023-04-30T19:32:43.542Z,3.00
2023-04-30T19:35:11.282Z,3.60
2023-04-30T19:37:43.554Z,4.60
2023-04-30T19:40:11.649Z,4.20
2023-04-30T19:42:39.500Z,3.60
2023-04-30T19:45:10.719Z,5.00
2023-04-30T19:47:41.444Z,4.40
2023-04-30T19:50:09.128Z,4.00
2023-04-30T19:52:37.196Z,5.00
2023-04-30T19:55:07.068Z,4.80
2023-04-30T19:57:36.078Z,4.60
2023-04-30T20:00:06.658Z,4.40
2023-04-30T20:02:37.921Z,4.20
2023-04-30T20:05:07.227Z,5.00
2023-04-30T20:07:35.291Z,4.50
2023-04-30T20:10:05.362Z,5.50
2023-04-30T20:12:32.829Z,4.60
2023-04-30T20:15:00.828Z,4.80
2023-04-30T20:17:28.268Z,4.20
2023-04-30T20:19:56.298Z,5.00
2023-04-30T20:22:24.680Z,5.40
2023-04-30T20:24:52.141Z,5.30
2023-04-30T20:27:24.661Z,6.60
2023-04-30T20:29:54.104Z,6.20
2023-04-30T20:32:25.101Z,5.60
2023-04-30T20:34:54.215Z,4.70
2023-04-30T20:37:35.987Z,5.50
2023-04-30T20:40:03.472Z,5.40
2023-04-30T20:42:31.800Z,5.60
2023-04-30T20:44:59.254Z,5.10
2023-04-30T20:47:27.643Z,5.40
2023-04-30T20:49:57.732Z,5.80
2023-04-30T20:52:25.556Z,6.60
2023-04-30T20:54:52.671Z,5.30
2023-04-30T20:57:21.348Z,5.70
2023-04-30T20:59:48.397Z,4.70
2023-04-30T21:02:16.134Z,5.20
2023-04-30T21:04:43.210Z,5.50
2023-04-30T21:07:11.221Z,5.90
2023-04-30T21:09:39.323Z,6.20
2023-04-30T21:12:06.363Z,6.40
2023-04-30T21:14:33.826Z,6.90
2023-04-30T21:17:04.843Z,7.00
2023-04-30T21:19:33.098Z,7.20
2023-04-30T21:22:00.218Z,6.90
2023-04-30T21:24:31.224Z,7.30
2023-04-30T21:26:59.903Z,7.20
2023-04-30T21:29:26.883Z,7.40
2023-04-30T21:31:55.547Z,6.60
2023-04-30T21:34:22.814Z,6.40
2023-04-30T21:36:51.397Z,5.80
2023-04-30T21:39:18.366Z,6.70
2023-04-30T21:41:47.154Z,6.50
2023-04-30T21:44:15.127Z,5.90
2023-04-30T21:46:42.253Z,5.70
2023-04-30T21:49:09.418Z,5.80
2023-04-30T21:51:38.209Z,5.70
2023-04-30T21:54:07.192Z,5.40
2023-04-30T21:56:34.348Z,5.20
2023-04-30T21:59:02.012Z,6.10
2023-04-30T22:01:30.274Z,6.00
2023-04-30T22:03:57.661Z,5.20
2023-04-30T22:06:24.918Z,5.70
2023-04-30T22:08:52.133Z,6.00
2023-04-30T22:11:20.671Z,4.80
2023-04-30T22:13:50.059Z,5.80
2023-04-30T22:16:18.965Z,5.50
2023-04-30T22:18:46.876Z,5.30
2023-04-30T22:21:13.921Z,6.00
2023-04-30T22:23:41.391Z,5.20
2023-04-30T22:26:10.802Z,5.30
2023-04-30T22:28:39.457Z,5.60
2023-04-30T22:31:08.054Z,5.20
2023-04-30T22:33:36.118Z,4.80
2023-04-30T22:36:05.654Z,5.40
2023-04-30T22:38:32.940Z,4.80
2023-04-30T22:41:00.363Z,5.10
2023-04-30T22:43:29.633Z,6.20
2023-04-30T22:45:59.532Z,4.50
2023-04-30T22:48:27.625Z,4.70
2023-04-30T22:50:54.948Z,4.40
2023-04-30T22:53:24.588Z,4.90
2023-04-30T22:55:53.588Z,4.90
2023-04-30T22:58:22.264Z,4.00
2023-04-30T23:00:50.016Z,4.60
2023-04-30T23:03:17.484Z,4.90
2023-04-30T23:05:44.507Z,4.30
2023-04-30T23:08:12.102Z,5.00
2023-04-30T23:10:39.065Z,4.20
2023-04-30T23:13:06.057Z,3.80
2023-04-30T23:15:34.457Z,4.30
2023-04-30T23:18:01.531Z,4.20
2023-04-30T23:20:28.634Z,3.70
2023-04-30T23:22:56.626Z,3.30
2023-04-30T23:25:23.526Z,4.20
2023-04-30T23:27:50.765Z,3.60
2023-04-30T23:30:17.777Z,4.00
2023-04-30T23:32:46.320Z,3.30
2023-04-30T23:35:13.395Z,4.00
2023-04-30T23:37:40.457Z,3.10
2023-04-30T23:40:09.142Z,3.90
2023-04-30T23:42:36.355Z,2.80
2023-04-30T23:45:06.729Z,3.60
2023-04-30T23:47:37.978Z,4.10
2023-04-30T23:50:05.520Z,3.20
2023-04-30T23:52:34.815Z,2.60
2023-04-30T23:55:02.450Z,3.20
2023-04-30T23:57:29.689Z,3.60
2023-04-30T23:59:57.482Z,3.40
